createdAt,value
2017-12-21T00:02:23.516Z,25.90
2017-12-21T00:04:50.924Z,24.27
2017-12-21T00:07:18.352Z,24.67
2017-12-21T00:09:45.789Z,25.80
2017-12-21T00:12:13.194Z,25.70
2017-12-21T00:14:40.616Z,24.20
2017-12-21T00:17:08.021Z,24.33
2017-12-21T00:19:35.446Z,26.80
2017-12-21T00:22:02.882Z,23.87
2017-12-21T00:24:30.292Z,23.30
2017-12-21T00:26:57.693Z,24.83
2017-12-21T00:29:25.109Z,25.27
2017-12-21T00:31:52.538Z,24.13
2017-12-21T00:34:19.966Z,24.70
2017-12-21T00:36:47.417Z,24.37
2017-12-21T00:39:14.828Z,23.57
2017-12-21T00:41:42.233Z,23.70
2017-12-21T00:44:09.645Z,23.77
2017-12-21T00:46:37.073Z,23.23
2017-12-21T00:49:04.497Z,23.93
2017-12-21T00:51:31.906Z,23.97
2017-12-21T00:53:59.334Z,23.10
2017-12-21T00:56:26.741Z,23.20
2017-12-21T00:58:54.156Z,23.77
2017-12-21T01:01:21.582Z,22.77
2017-12-21T01:03:49.029Z,22.90
2017-12-21T01:06:16.445Z,22.13
2017-12-21T01:08:43.853Z,22.00
2017-12-21T01:11:11.273Z,23.60
2017-12-21T01:13:38.688Z,23.20
2017-12-21T01:16:06.106Z,22.90
2017-12-21T01:18:33.505Z,22.33
2017-12-21T01:21:00.923Z,22.23
2017-12-21T01:23:28.337Z,23.37
2017-12-21T01:25:55.756Z,21.90
2017-12-21T01:28:23.169Z,23.57
2017-12-21T01:30:50.605Z,23.07
2017-12-21T01:33:18.047Z,25.20
2017-12-21T01:35:45.464Z,23.47
2017-12-21T01:38:12.928Z,22.90
2017-12-21T01:40:40.393Z,23.23
2017-12-21T01:43:07.797Z,22.63
2017-12-21T01:45:35.221Z,22.27
2017-12-21T01:48:02.639Z,22.53
2017-12-21T01:50:30.185Z,23.60
2017-12-21T01:52:57.594Z,21.90
2017-12-21T01:55:25.005Z,22.03
2017-12-21T01:57:52.421Z,21.50
2017-12-21T02:00:19.832Z,21.50
2017-12-21T02:02:47.260Z,22.57
2017-12-21T02:05:14.657Z,21.87
2017-12-21T02:07:42.106Z,23.10
2017-12-21T02:10:09.539Z,22.50
2017-12-21T02:12:36.957Z,22.77
2017-12-21T02:15:04.376Z,23.13
2017-12-21T02:17:31.797Z,23.37
2017-12-21T02:19:59.228Z,23.60
2017-12-21T02:22:26.621Z,23.93
2017-12-21T02:24:54.153Z,23.50
2017-12-21T02:27:21.550Z,25.50
2017-12-21T02:29:48.965Z,24.40
2017-12-21T02:32:16.381Z,24.10
2017-12-21T02:34:43.789Z,23.33
2017-12-21T02:37:11.235Z,25.53
2017-12-21T02:39:38.643Z,23.80
2017-12-21T02:42:06.055Z,24.50
2017-12-21T02:44:33.470Z,25.87
2017-12-21T02:47:00.874Z,24.90
2017-12-21T02:49:28.341Z,24.37
2017-12-21T02:51:55.745Z,23.17
2017-12-21T02:54:23.184Z,24.50
2017-12-21T02:56:50.600Z,25.27
2017-12-21T02:59:18.006Z,25.47
2017-12-21T03:01:45.434Z,24.93
2017-12-21T03:04:12.842Z,24.63
2017-12-21T03:06:40.276Z,25.23
2017-12-21T03:09:07.690Z,25.70
2017-12-21T03:11:35.098Z,24.83
2017-12-21T03:14:02.590Z,25.97
2017-12-21T03:16:30.017Z,27.77
2017-12-21T03:18:57.457Z,26.17
2017-12-21T03:21:24.888Z,25.63
2017-12-21T03:23:52.302Z,26.57
2017-12-21T03:26:19.805Z,26.50
2017-12-21T03:28:47.213Z,26.50
2017-12-21T03:31:14.628Z,25.43
2017-12-21T03:33:42.038Z,25.03
2017-12-21T03:36:09.445Z,27.03
2017-12-21T03:38:36.884Z,25.77
2017-12-21T03:41:04.295Z,24.87
2017-12-21T03:43:31.714Z,25.27
2017-12-21T03:45:59.177Z,24.60
2017-12-21T03:48:26.605Z,26.80
2017-12-21T03:50:54.033Z,23.83
2017-12-21T03:53:21.437Z,23.20
2017-12-21T03:55:48.867Z,24.70
2017-12-21T03:58:16.271Z,24.50
2017-12-21T04:00:43.678Z,24.57
2017-12-21T04:03:11.094Z,25.80
2017-12-21T04:05:38.521Z,25.40
2017-12-21T04:08:05.926Z,25.97
2017-12-21T04:10:33.347Z,25.37
2017-12-21T04:13:00.792Z,25.73
2017-12-21T04:15:28.305Z,24.53
2017-12-21T04:17:55.743Z,25.23
2017-12-21T04:20:23.165Z,26.20
2017-12-21T04:22:50.584Z,25.90
2017-12-21T04:25:18.009Z,24.40
2017-12-21T04:27:45.433Z,25.73
2017-12-21T04:30:12.850Z,24.07
2017-12-21T04:32:40.277Z,25.97
2017-12-21T04:35:07.697Z,25.53
2017-12-21T04:37:35.107Z,26.50
2017-12-21T04:40:02.574Z,26.60
2017-12-21T04:42:29.990Z,28.10
2017-12-21T04:44:57.421Z,26.63
2017-12-21T04:47:24.850Z,25.37
2017-12-21T04:49:52.286Z,27.90
2017-12-21T04:52:19.769Z,26.73
2017-12-21T04:54:47.178Z,27.07
2017-12-21T04:57:14.589Z,26.50
2017-12-21T04:59:42.011Z,27.50
2017-12-21T05:02:09.416Z,27.30
2017-12-21T05:04:36.853Z,27.37
2017-12-21T05:07:04.266Z,28.23
2017-12-21T05:09:31.697Z,28.97
2017-12-21T05:11:59.121Z,29.50
2017-12-21T05:14:26.521Z,25.97
2017-12-21T05:16:53.978Z,26.17
2017-12-21T05:19:21.412Z,26.50
2017-12-21T05:21:48.841Z,28.07
2017-12-21T05:24:16.289Z,27.07
2017-12-21T05:26:43.693Z,26.83
2017-12-21T05:29:11.127Z,28.70
2017-12-21T05:31:38.530Z,26.70
2017-12-21T05:34:05.947Z,27.60
2017-12-21T05:36:33.386Z,27.10
2017-12-21T05:39:00.799Z,27.67
2017-12-21T05:41:28.220Z,26.20
2017-12-21T05:43:55.645Z,26.10
2017-12-21T05:46:23.054Z,25.90
2017-12-21T05:48:50.476Z,26.87
2017-12-21T05:51:17.895Z,26.33
2017-12-21T05:53:45.307Z,27.07
2017-12-21T05:56:12.730Z,25.60
2017-12-21T05:58:40.147Z,27.43
2017-12-21T06:01:07.560Z,26.83
2017-12-21T06:03:35.010Z,28.27
2017-12-21T06:06:02.420Z,26.50
2017-12-21T06:08:29.838Z,26.80
2017-12-21T06:10:57.237Z,26.10
2017-12-21T06:13:24.651Z,26.50
2017-12-21T06:15:52.100Z,25.33
2017-12-21T06:18:19.545Z,25.93
2017-12-21T06:20:46.953Z,25.80
2017-12-21T06:23:14.428Z,27.63
2017-12-21T06:25:41.842Z,25.50
2017-12-21T06:28:09.256Z,25.00
2017-12-21T06:30:36.670Z,24.83
2017-12-21T06:33:04.102Z,26.33
2017-12-21T06:35:31.607Z,25.40
2017-12-21T06:37:59.013Z,25.20
2017-12-21T06:40:26.449Z,26.37
2017-12-21T06:42:53.874Z,24.73
2017-12-21T06:45:21.294Z,25.33
2017-12-21T06:47:48.705Z,26.63
2017-12-21T06:50:16.124Z,27.23
2017-12-21T06:52:43.581Z,24.90
2017-12-21T06:55:11.130Z,26.43
2017-12-21T06:57:38.574Z,26.83
2017-12-21T07:00:05.977Z,27.90
2017-12-21T07:02:33.386Z,27.80
2017-12-21T07:05:00.853Z,27.13
2017-12-21T07:07:28.306Z,26.70
2017-12-21T07:09:55.729Z,26.40
2017-12-21T07:12:23.158Z,26.30
2017-12-21T07:14:50.589Z,26.00
2017-12-21T07:17:18.154Z,26.63
2017-12-21T07:19:45.627Z,26.43
2017-12-21T07:22:13.045Z,27.67
2017-12-21T07:24:40.461Z,28.60
2017-12-21T07:27:07.893Z,24.57
2017-12-21T07:29:35.361Z,27.13
2017-12-21T07:32:02.799Z,28.77
2017-12-21T07:34:30.220Z,27.70
2017-12-21T07:36:57.669Z,27.47
2017-12-21T07:39:25.083Z,26.07
2017-12-21T07:41:52.517Z,28.33
2017-12-21T07:44:20.003Z,26.10
2017-12-21T07:46:47.458Z,26.90
2017-12-21T07:49:14.874Z,28.27
2017-12-21T07:51:42.296Z,28.20
2017-12-21T07:54:09.970Z,28.13
2017-12-21T07:56:37.405Z,30.43
2017-12-21T07:59:04.830Z,28.97
2017-12-21T08:01:32.289Z,28.33
2017-12-21T08:03:59.689Z,27.23
2017-12-21T08:06:27.131Z,25.90
2017-12-21T08:08:54.538Z,26.50
2017-12-21T08:11:21.949Z,26.67
2017-12-21T08:13:49.373Z,26.93
2017-12-21T08:16:16.793Z,26.43
2017-12-21T08:18:44.241Z,26.23
2017-12-21T08:21:11.702Z,27.57
2017-12-21T08:23:39.125Z,27.50
2017-12-21T08:26:06.546Z,25.17
2017-12-21T08:28:33.966Z,25.50
2017-12-21T08:31:01.511Z,26.57
2017-12-21T08:33:28.913Z,24.80
2017-12-21T08:35:56.369Z,25.50
2017-12-21T08:38:23.770Z,25.77
2017-12-21T08:40:51.202Z,26.30
2017-12-21T08:43:18.638Z,24.83
2017-12-21T08:45:46.058Z,25.40
2017-12-21T08:48:13.466Z,24.07
2017-12-21T08:50:40.890Z,25.43
2017-12-21T08:53:08.300Z,23.53
2017-12-21T08:55:35.740Z,21.60
2017-12-21T08:58:03.150Z,21.83
2017-12-21T09:00:30.557Z,23.67
2017-12-21T09:02:57.969Z,21.63
2017-12-21T09:05:25.377Z,22.93
2017-12-21T09:07:52.795Z,22.10
2017-12-21T09:10:20.216Z,23.30
2017-12-21T09:12:47.613Z,22.67
2017-12-21T09:15:15.033Z,21.03
2017-12-21T09:17:42.441Z,20.60
2017-12-21T09:20:09.862Z,21.57
2017-12-21T09:22:37.290Z,21.80
2017-12-21T09:25:04.710Z,22.40
2017-12-21T09:27:32.142Z,20.60
2017-12-21T09:29:59.545Z,21.33
2017-12-21T09:32:27.726Z,20.97
2017-12-21T09:34:55.147Z,20.00
2017-12-21T09:37:22.554Z,20.13
2017-12-21T09:39:49.965Z,20.37
2017-12-21T09:42:17.377Z,19.73
2017-12-21T09:44:44.797Z,22.33
2017-12-21T09:47:12.213Z,20.67
2017-12-21T09:49:39.621Z,19.97
2017-12-21T09:52:07.037Z,21.60
2017-12-21T09:54:34.441Z,19.70
2017-12-21T09:57:01.889Z,21.20
2017-12-21T09:59:29.305Z,21.50
2017-12-21T10:01:56.722Z,19.90
2017-12-21T10:04:24.992Z,21.00
2017-12-21T10:06:52.406Z,19.60
2017-12-21T10:09:19.921Z,21.27
2017-12-21T10:11:47.365Z,20.43
2017-12-21T10:14:14.738Z,20.73
2017-12-21T10:16:42.149Z,19.77
2017-12-21T10:19:09.557Z,19.23
2017-12-21T10:21:37.004Z,18.90
2017-12-21T10:24:04.406Z,19.53
2017-12-21T10:26:31.825Z,18.73
2017-12-21T10:28:59.233Z,19.70
2017-12-21T10:31:26.638Z,19.30
2017-12-21T10:33:54.063Z,19.27
2017-12-21T10:36:21.470Z,17.73
2017-12-21T10:38:48.877Z,18.57
2017-12-21T10:41:16.289Z,17.10
2017-12-21T10:43:43.703Z,17.40
2017-12-21T10:46:11.161Z,17.90
2017-12-21T10:48:38.564Z,17.20
2017-12-21T10:51:05.969Z,17.43
2017-12-21T10:53:33.376Z,19.23
2017-12-21T10:56:00.792Z,17.70
2017-12-21T10:58:28.305Z,17.33
2017-12-21T11:00:55.718Z,18.10
2017-12-21T11:03:23.138Z,18.83
2017-12-21T11:05:50.555Z,18.57
2017-12-21T11:08:17.954Z,18.80
2017-12-21T11:10:45.376Z,19.30
2017-12-21T11:13:12.781Z,18.30
2017-12-21T11:15:40.189Z,18.27
2017-12-21T11:18:07.607Z,18.97
2017-12-21T11:20:35.017Z,18.33
2017-12-21T11:23:02.438Z,16.80
2017-12-21T11:25:29.846Z,17.50
2017-12-21T11:27:57.253Z,17.20
2017-12-21T11:30:24.669Z,16.57
2017-12-21T11:32:52.081Z,17.07
2017-12-21T11:35:19.490Z,16.90
2017-12-21T11:37:46.931Z,17.30
2017-12-21T11:40:14.346Z,17.33
2017-12-21T11:42:41.758Z,17.30
2017-12-21T11:45:09.183Z,17.70
2017-12-21T11:47:36.590Z,17.10
2017-12-21T11:50:04.001Z,16.83
2017-12-21T11:52:31.422Z,17.03
2017-12-21T11:54:58.837Z,17.90
2017-12-21T11:57:26.277Z,17.73
2017-12-21T11:59:53.685Z,15.90
2017-12-21T12:02:21.097Z,16.70
2017-12-21T12:04:48.549Z,16.83
2017-12-21T12:07:15.969Z,16.27
2017-12-21T12:09:43.390Z,16.57
2017-12-21T12:12:10.832Z,16.20
2017-12-21T12:14:38.282Z,16.17
2017-12-21T12:17:05.921Z,15.77
2017-12-21T12:19:33.379Z,16.00
2017-12-21T12:22:01.232Z,16.83
2017-12-21T12:24:28.629Z,18.00
2017-12-21T12:26:56.042Z,17.33
2017-12-21T12:29:23.465Z,18.47
2017-12-21T12:31:50.897Z,17.63
2017-12-21T12:34:18.410Z,18.17
2017-12-21T12:36:45.813Z,19.50
2017-12-21T12:39:13.234Z,19.20
2017-12-21T12:41:40.701Z,18.70
2017-12-21T12:44:08.116Z,17.93
2017-12-21T12:46:35.589Z,18.67
2017-12-21T12:49:02.998Z,19.13
2017-12-21T12:51:30.449Z,19.73
2017-12-21T12:53:57.866Z,18.10
2017-12-21T12:56:25.313Z,19.13
2017-12-21T12:58:52.733Z,20.63
2017-12-21T13:01:20.165Z,21.33
2017-12-21T13:03:47.586Z,19.73
2017-12-21T13:06:15.073Z,18.80
2017-12-21T13:08:42.498Z,18.50
2017-12-21T13:11:09.955Z,19.27
2017-12-21T13:13:37.367Z,19.23
2017-12-21T13:16:04.812Z,20.37
2017-12-21T13:18:32.265Z,18.77
2017-12-21T13:20:59.702Z,20.97
2017-12-21T13:23:27.207Z,19.37
2017-12-21T13:25:54.625Z,19.60
2017-12-21T13:28:22.045Z,19.93
2017-12-21T13:30:49.477Z,19.10
2017-12-21T13:33:16.900Z,18.63
2017-12-21T13:35:44.321Z,20.83
2017-12-21T13:38:11.779Z,19.73
2017-12-21T13:40:39.206Z,19.80
2017-12-21T13:43:06.627Z,19.33
2017-12-21T13:45:34.039Z,20.63
2017-12-21T13:48:01.478Z,19.80
2017-12-21T13:50:28.905Z,20.53
2017-12-21T13:52:56.321Z,20.57
2017-12-21T13:55:23.769Z,18.93
2017-12-21T13:57:51.190Z,19.60
2017-12-21T14:00:18.721Z,19.70
2017-12-21T14:02:46.141Z,19.87
2017-12-21T14:05:13.558Z,20.43
2017-12-21T14:07:41.059Z,18.67
2017-12-21T14:10:08.485Z,19.63
2017-12-21T14:12:35.945Z,19.67
2017-12-21T14:15:03.660Z,19.37
2017-12-21T14:17:31.089Z,18.63
2017-12-21T14:19:58.530Z,18.80
2017-12-21T14:22:25.938Z,20.40
2017-12-21T14:24:53.385Z,19.43
2017-12-21T14:27:20.808Z,19.80
2017-12-21T14:29:48.218Z,19.47
2017-12-21T14:32:15.639Z,19.27
2017-12-21T14:34:43.092Z,19.20
2017-12-21T14:37:10.563Z,20.10
2017-12-21T14:39:38.006Z,19.90
2017-12-21T14:42:05.421Z,20.17
2017-12-21T14:44:32.853Z,19.00
2017-12-21T14:47:00.309Z,21.40
2017-12-21T14:49:27.789Z,19.83
2017-12-21T14:51:55.201Z,20.77
2017-12-21T14:54:22.626Z,21.83
2017-12-21T14:56:50.058Z,20.93
2017-12-21T14:59:17.466Z,23.47
2017-12-21T15:01:44.918Z,22.10
2017-12-21T15:04:12.344Z,23.23
2017-12-21T15:06:39.757Z,23.97
2017-12-21T15:09:07.177Z,23.77
2017-12-21T15:11:34.596Z,21.87
2017-12-21T15:14:02.041Z,22.00
2017-12-21T15:16:29.461Z,22.33
2017-12-21T15:18:56.872Z,20.90
2017-12-21T15:21:24.294Z,23.03
2017-12-21T15:23:52.543Z,21.17
2017-12-21T15:26:19.986Z,21.53
2017-12-21T15:28:47.393Z,23.57
2017-12-21T15:31:14.857Z,23.93
2017-12-21T15:33:42.349Z,23.67
2017-12-21T15:36:09.781Z,22.90
2017-12-21T15:38:37.236Z,22.27
2017-12-21T15:41:04.649Z,23.47
2017-12-21T15:43:33.021Z,23.40
2017-12-21T15:46:00.473Z,23.47
2017-12-21T15:48:27.873Z,23.40
2017-12-21T15:50:55.329Z,25.57
2017-12-21T15:53:22.865Z,25.50
2017-12-21T15:55:51.298Z,25.50
2017-12-21T15:58:18.705Z,25.47
2017-12-21T16:00:46.141Z,26.87
2017-12-21T16:03:13.557Z,26.43
2017-12-21T16:05:41.105Z,29.00
2017-12-21T16:08:08.557Z,28.57
2017-12-21T16:10:36.026Z,28.57
2017-12-21T16:13:03.441Z,27.93
2017-12-21T16:15:30.897Z,27.60
2017-12-21T16:17:59.325Z,27.90
2017-12-21T16:20:26.782Z,29.97
2017-12-21T16:22:54.205Z,29.07
2017-12-21T16:25:21.705Z,28.70
2017-12-21T16:27:49.126Z,28.50
2017-12-21T16:30:16.554Z,28.13
2017-12-21T16:32:43.975Z,28.27
2017-12-21T16:35:11.386Z,30.27
2017-12-21T16:37:38.809Z,27.17
2017-12-21T16:40:06.250Z,26.97
2017-12-21T16:42:33.661Z,29.53
2017-12-21T16:45:02.125Z,28.40
2017-12-21T16:47:29.581Z,31.20
2017-12-21T16:49:57.025Z,29.10
2017-12-21T16:52:24.479Z,34.87
2017-12-21T16:54:51.917Z,37.70
2017-12-21T16:57:19.373Z,29.77
2017-12-21T16:59:46.781Z,29.50
2017-12-21T17:02:14.200Z,29.53
2017-12-21T17:04:41.620Z,32.03
2017-12-21T17:07:09.045Z,31.13
2017-12-21T17:09:36.465Z,32.07
2017-12-21T17:12:10.833Z,33.60
2017-12-21T17:14:39.614Z,31.07
2017-12-21T17:17:07.410Z,30.00
2017-12-21T17:19:34.843Z,30.33
2017-12-21T17:22:02.361Z,30.07
2017-12-21T17:24:29.785Z,34.80
2017-12-21T17:26:57.200Z,29.40
2017-12-21T17:29:25.370Z,26.30
2017-12-21T17:31:52.831Z,29.87
2017-12-21T17:34:20.310Z,28.93
2017-12-21T17:36:49.788Z,29.20
2017-12-21T17:39:17.297Z,26.57
2017-12-21T17:41:44.726Z,29.10
2017-12-21T17:44:13.018Z,24.60
2017-12-21T17:46:40.585Z,24.67
2017-12-21T17:49:08.054Z,26.93
2017-12-21T17:51:36.593Z,30.87
2017-12-21T17:54:04.006Z,32.43
2017-12-21T17:56:31.446Z,29.40
2017-12-21T17:58:58.923Z,31.27
2017-12-21T18:01:27.092Z,31.77
2017-12-21T18:03:54.634Z,31.57
2017-12-21T18:06:22.057Z,30.60
2017-12-21T18:08:49.477Z,29.90
2017-12-21T18:11:17.374Z,32.43
2017-12-21T18:13:44.789Z,30.40
2017-12-21T18:16:12.209Z,32.27
2017-12-21T18:18:39.650Z,29.63
2017-12-21T18:21:07.059Z,32.90
2017-12-21T18:23:34.489Z,29.70
2017-12-21T18:26:01.902Z,34.57
2017-12-21T18:28:29.319Z,33.20
2017-12-21T18:30:56.749Z,33.40
2017-12-21T18:33:24.169Z,33.90
2017-12-21T18:35:51.712Z,35.80
2017-12-21T18:38:19.137Z,32.93
2017-12-21T18:40:46.549Z,35.43
2017-12-21T18:43:13.969Z,34.40
2017-12-21T18:45:41.385Z,35.77
2017-12-21T18:48:08.836Z,34.20
2017-12-21T18:50:36.376Z,33.97
2017-12-21T18:53:03.795Z,33.43
2017-12-21T18:55:31.225Z,32.13
2017-12-21T18:57:58.647Z,34.90
2017-12-21T19:00:26.074Z,34.83
2017-12-21T19:02:53.489Z,34.10
2017-12-21T19:05:20.945Z,33.30
2017-12-21T19:07:48.367Z,31.03
2017-12-21T19:10:16.413Z,33.50
2017-12-21T19:12:43.853Z,31.87
2017-12-21T19:15:11.286Z,32.07
2017-12-21T19:17:38.717Z,31.47
2017-12-21T19:20:07.271Z,29.03
2017-12-21T19:22:34.669Z,29.00
2017-12-21T19:25:02.105Z,31.40
2017-12-21T19:27:29.521Z,30.77
2017-12-21T19:29:56.978Z,29.00
2017-12-21T19:32:24.960Z,29.63
2017-12-21T19:34:52.459Z,32.63
2017-12-21T19:37:19.883Z,31.97
2017-12-21T19:39:47.307Z,31.20
2017-12-21T19:42:15.850Z,29.40
2017-12-21T19:44:43.754Z,32.87
2017-12-21T19:47:11.505Z,32.30
2017-12-21T19:49:38.980Z,32.33
2017-12-21T19:52:06.433Z,30.57
2017-12-21T19:54:33.853Z,31.30
2017-12-21T19:57:05.478Z,32.10
2017-12-21T19:59:32.907Z,32.17
2017-12-21T20:02:00.391Z,31.93
2017-12-21T20:04:27.808Z,30.50
2017-12-21T20:06:55.286Z,30.80
2017-12-21T20:09:22.706Z,29.07
2017-12-21T20:11:50.181Z,30.10
2017-12-21T20:14:17.646Z,32.43
2017-12-21T20:16:45.067Z,30.03
2017-12-21T20:19:12.485Z,30.70
2017-12-21T20:21:39.923Z,31.90
2017-12-21T20:24:07.381Z,30.80
2017-12-21T20:26:34.869Z,31.67
2017-12-21T20:29:02.270Z,31.70
2017-12-21T20:31:29.688Z,29.87
2017-12-21T20:33:57.125Z,31.67
2017-12-21T20:36:24.546Z,33.00
2017-12-21T20:38:51.990Z,31.50
2017-12-21T20:41:19.428Z,29.80
2017-12-21T20:43:46.865Z,32.10
2017-12-21T20:46:14.284Z,31.50
2017-12-21T20:48:41.693Z,28.87
2017-12-21T20:51:09.126Z,31.60
2017-12-21T20:53:36.544Z,30.40
2017-12-21T20:56:03.959Z,29.07
2017-12-21T20:58:31.381Z,29.43
2017-12-21T21:00:58.810Z,31.97
2017-12-21T21:03:26.306Z,31.07
2017-12-21T21:05:53.751Z,31.07
2017-12-21T21:08:21.147Z,32.23
2017-12-21T21:10:48.592Z,31.40
2017-12-21T21:13:16.000Z,29.57
2017-12-21T21:15:49.753Z,27.83
2017-12-21T21:18:17.188Z,28.03
2017-12-21T21:20:44.603Z,27.33
2017-12-21T21:23:12.108Z,27.90
2017-12-21T21:25:39.467Z,27.10
2017-12-21T21:28:06.894Z,28.90
2017-12-21T21:30:34.327Z,28.33
2017-12-21T21:33:01.758Z,27.00
2017-12-21T21:35:29.205Z,25.70
2017-12-21T21:37:56.649Z,26.73
2017-12-21T21:40:24.209Z,25.93
2017-12-21T21:42:51.657Z,28.87
2017-12-21T21:45:19.072Z,27.40
2017-12-21T21:47:46.498Z,28.60
2017-12-21T21:50:13.906Z,28.10
2017-12-21T21:52:41.433Z,25.67
2017-12-21T21:55:08.856Z,23.30
2017-12-21T21:57:36.269Z,25.90
2017-12-21T22:00:03.697Z,27.00
2017-12-21T22:02:31.132Z,25.27
2017-12-21T22:04:58.577Z,25.33
2017-12-21T22:07:26.050Z,27.40
2017-12-21T22:09:53.453Z,27.00
2017-12-21T22:12:20.878Z,28.43
2017-12-21T22:14:48.285Z,28.70
2017-12-21T22:17:15.735Z,27.27
2017-12-21T22:19:50.564Z,28.37
2017-12-21T22:22:18.009Z,28.00
2017-12-21T22:24:45.429Z,28.20
2017-12-21T22:27:12.849Z,25.63
2017-12-21T22:29:40.265Z,29.47
2017-12-21T22:32:07.681Z,29.03
2017-12-21T22:34:35.130Z,29.67
2017-12-21T22:37:02.545Z,27.90
2017-12-21T22:39:29.962Z,27.17
2017-12-21T22:41:57.439Z,26.83
2017-12-21T22:44:24.878Z,26.10
2017-12-21T22:46:52.302Z,28.23
2017-12-21T22:49:19.709Z,30.23
2017-12-21T22:51:47.133Z,30.33
2017-12-21T22:54:14.560Z,29.67
2017-12-21T22:56:41.962Z,29.63
2017-12-21T22:59:09.417Z,26.30
2017-12-21T23:01:36.852Z,30.40
2017-12-21T23:04:04.295Z,27.70
2017-12-21T23:06:31.706Z,26.63
2017-12-21T23:08:59.117Z,28.10
2017-12-21T23:11:26.574Z,29.20
2017-12-21T23:13:54.005Z,29.83
2017-12-21T23:16:21.450Z,30.97
2017-12-21T23:18:48.877Z,33.60
2017-12-21T23:21:16.325Z,29.10
2017-12-21T23:23:43.773Z,26.13
2017-12-21T23:26:11.185Z,29.47
2017-12-21T23:28:38.604Z,27.93
2017-12-21T23:31:06.025Z,27.00
2017-12-21T23:33:33.446Z,29.57
2017-12-21T23:36:00.887Z,30.53
2017-12-21T23:38:28.313Z,27.50
2017-12-21T23:40:55.733Z,29.90
2017-12-21T23:43:23.149Z,29.80
2017-12-21T23:45:50.573Z,27.50
2017-12-21T23:48:18.000Z,28.20
2017-12-21T23:50:45.413Z,27.80
2017-12-21T23:53:12.837Z,29.13
2017-12-21T23:55:40.261Z,26.43
2017-12-21T23:58:07.693Z,27.33
